1886 Hurricane NOT_NAMED (1886259N21295)


IBTrACS version v04r00. Visit IBTrACS website for data access.
Please direct all questions to the IBTrACS Q and A forum

Storm track - Intensity - Wind Radii - Intensity Data - Source Data - All data

Summary Information

Storm ID 1886259N21295
Start Sep 16 00Z
Landfall Sep 17 12Z, Sep 18 03Z, Sep 20 03Z, Sep 23 00Z
Max Intensity 85 kt (Sep 21 00Z), 987 mb (Sep 23 06Z)
End Sep 25 18Z
ATCF IDs ,AL081886
Track status Best track data.

Storm track plot

Map of storm track

Intensity plots

Map of storm track

Radial wind information

No radial wind information for this storm


Position and Intensity Table

BASIN ISO_TIME_________ NATURE LAT LON WMO WIND USA WIND MLC WIND MLC PRES
degrees north degrees east kts kts kts mb
NA 1886-09-16 00:00:00 TS 21.00 -65.50 35 35
NA 03:00:00 TS 21.00 -66.05 35
NA 06:00:00 TS 21.00 -66.60 35 35
NA 09:00:00 TS 21.00 -67.14 35
NA 12:00:00 TS 21.00 -67.70 35 35
NA 15:00:00 TS 21.00 -68.27 35
NA 18:00:00 TS 21.00 -68.90 35 35
NA 21:00:00 TS 21.00 -69.64 37
NA 1886-09-17 00:00:00 TS 21.00 -70.40 40 40
NA 03:00:00 TS 21.00 -71.06 40
NA 06:00:00 TS 21.00 -71.70 40 40
NA 09:00:00 TS 21.00 -72.32 42
NA 12:00:00 MX 21.23 -72.96 45 45 25
NA 15:00:00 MX 21.35 -73.71 45 30
NA 18:00:00 TS 21.38 -74.48 45 45 35
NA 21:00:00 TS 21.35 -75.19 42 35
NA 1886-09-18 00:00:00 TS 21.23 -75.90 40 40 35
NA 03:00:00 TS 21.12 -76.52 37 32
NA 06:00:00 TS 21.00 -77.13 35 35 30
NA 09:00:00 TS 20.86 -77.82 35 30
NA 12:00:00 TS 20.77 -78.53 35 35 30
NA 15:00:00 TS 20.76 -79.25 37 30
NA 18:00:00 TS 20.80 -79.97 40 40 30
NA 21:00:00 TS 20.82 -80.65 42 30
NA 1886-09-19 00:00:00 TS 20.83 -81.30 45 45 30
NA 03:00:00 TS 20.85 -81.89 47 30
NA 06:00:00 TS 20.87 -82.47 50 50 30
NA 09:00:00 TS 20.89 -83.09 52 30
NA 12:00:00 TS 20.93 -83.73 55 55 30
NA 15:00:00 TS 21.02 -84.42 57 30
NA 18:00:00 TS 21.13 -85.10 60 60 30
NA 21:00:00 TS 21.25 -85.74 62 30
NA 1886-09-20 00:00:00 TS 21.37 -86.37 65 65 30
NA 03:00:00 TS 21.47 -87.01 67 30
NA 06:00:00 TS 21.57 -87.67 70 70 30
NA 09:00:00 TS 21.64 -88.34 72 30
NA 12:00:00 TS 21.70 -89.00 75 75 30
NA 15:00:00 TS 21.75 -89.63 77 30
NA 18:00:00 TS 21.80 -90.23 80 80 30
NA 21:00:00 TS 21.84 -90.83 82 30
NA 1886-09-21 00:00:00 TS 21.90 -91.43 85 85 30
NA 03:00:00 TS 21.97 -92.04 85 32
NA 06:00:00 TS 22.07 -92.67 85 85 35
NA 09:00:00 TS 22.17 -93.36 85 40
NA 12:00:00 TS 22.30 -94.00 85 85 45
NA 15:00:00 TS 22.45 -94.46 85 50
NA 18:00:00 TS 22.67 -94.83 85 85 55
NA 21:00:00 TS 22.98 -95.23 85 57
NA 1886-09-22 00:00:00 TS 23.33 -95.60 85 85 60
NA 03:00:00 TS 23.68 -95.97 85 67
NA 06:00:00 TS 24.00 -96.30 85 85 75
NA 09:00:00 TS 24.28 -96.58 85 80
NA 12:00:00 TS 24.53 -96.80 85 85 85
NA 15:00:00 TS 24.76 -96.95 85 85
NA 18:00:00 TS 24.97 -97.07 85 85 85
NA 21:00:00 TS 25.17 -97.20 85 85
NA 1886-09-23 00:00:00 TS 25.40 -97.30 85 85 85
NA 03:00:00 TS 25.70 -97.34 85 85
NA 06:00:00 TS 26.03 -97.37 85 85 85 987
NA 09:00:00 TS 26.35 -97.43 82 82
NA 12:00:00 TS 26.67 -97.50 80 80 80
NA 15:00:00 TS 26.98 -97.54 77 77
NA 18:00:00 TS 27.30 -97.57 75 75 75
NA 21:00:00 TS 27.63 -97.57 72 72
NA 1886-09-24 00:00:00 TS 27.97 -97.57 70 70 70
NA 03:00:00 TS 28.30 -97.55 67 65
NA 06:00:00 TS 28.63 -97.53 65 65 60
NA 09:00:00 TS 28.93 -97.52 55 52
NA 12:00:00 TS 29.32 -97.50 45 45 45
NA 15:00:00 TS 29.93 -97.44 37 37
NA 18:00:00 TS 30.80 -97.40 30 30 30
NA 21:00:00 TS 32.01 -97.51 30
NA 1886-09-25 00:00:00 TS 32.80 -97.40 30
NA 03:00:00 TS 33.60 -97.32 25
NA 06:00:00 TS 34.40 -97.10 20
NA 09:00:00 TS 35.13 -96.67 20
NA 12:00:00 TS 36.00 -96.00 20
NA 15:00:00 TS 37.16 -95.08 20
NA 18:00:00 TS 38.50 -94.00 20

Source Information

Agency Information
USA hurdat2-1851-2018-051019.txt:Line=5383:UNNAMED
TOKYO
CMA
HKO
NEWDELHI
REUNION
BOM
NADI
WELLINGTON
DS824
TD9636
TD9635
NEUMANN
MLC

All available IBTrACS Data

SEASON BASIN SUBBASIN ISO_TIME_________ NATURE LAT LON WMO WIND WMO AGENCY DIST2LAND LANDFALL IFLAG USA AGENCY USA ATCF_ID USA LAT USA LON USA STATUS USA WIND USA SSHS MLC LAT MLC LON MLC CLASS MLC WIND MLC PRES STORM SPEED STORM DIR
Year degrees north degrees east kts km km degrees north degrees east kts 1 degrees north degrees east kts mb kts degrees
1886 NA NA 1886-09-16 00:00:00 TS 21.00 -65.50 35 hurdat_atl 291 290 O_____________ hurdat_atl AL081886 21.00 -65.50 TS 35 0 10 270
1886 NA NA 03:00:00 TS 21.00 -66.05 290 290 P_____________ AL081886 21.00 -66.05 TS 35 0 10 270
1886 NA NA 06:00:00 TS 21.00 -66.60 35 hurdat_atl 290 290 O_____________ hurdat_atl AL081886 21.00 -66.60 TS 35 0 10 270
1886 NA NA 09:00:00 TS 21.00 -67.14 290 253 P_____________ AL081886 21.00 -67.14 TS 35 0 10 270
1886 NA NA 12:00:00 TS 21.00 -67.70 35 hurdat_atl 253 222 O_____________ hurdat_atl AL081886 21.00 -67.70 TS 35 0 11 270
1886 NA NA 15:00:00 TS 21.00 -68.27 216 194 P_____________ AL081886 21.00 -68.27 TS 35 0 11 270
1886 NA NA 18:00:00 TS 21.00 -68.90 35 hurdat_atl 194 162 O_____________ hurdat_atl AL081886 21.00 -68.90 TS 35 0 13 270
1886 NA NA 21:00:00 TS 21.00 -69.64 162 135 P_____________ AL081886 21.00 -69.64 TS 37 0 14 270
1886 NA NA 1886-09-17 00:00:00 TS 21.00 -70.40 40 hurdat_atl 135 134 O_____________ hurdat_atl AL081886 21.00 -70.40 TS 40 0 13 270
1886 NA NA 03:00:00 TS 21.00 -71.06 134 134 P_____________ AL081886 21.00 -71.06 TS 40 0 12 270
1886 NA NA 06:00:00 TS 21.00 -71.70 40 hurdat_atl 134 75 O_____________ hurdat_atl AL081886 21.00 -71.70 TS 40 0 12 270
1886 NA NA 09:00:00 TS 21.00 -72.32 75 10 P_____________ AL081886 21.00 -72.32 TS 42 0 12 281
1886 NA NA 12:00:00 MX 21.23 -72.96 45 hurdat_atl 0 0 O____________O hurdat_atl AL081886 21.00 -73.00 TS 45 0 23.10 -72.60 WV 25 13 285
1886 NA NA 15:00:00 MX 21.35 -73.71 33 33 P____________P AL081886 21.00 -73.83 TS 45 0 22.75 -73.26 WV 30 14 276
1886 NA NA 18:00:00 TS 21.38 -74.48 45 hurdat_atl 89 60 O____________O hurdat_atl AL081886 21.00 -74.70 TS 45 0 22.40 -73.90 TS 35 14 270
1886 NA NA 21:00:00 TS 21.35 -75.19 53 15 P____________P AL081886 21.00 -75.54 TS 42 0 22.05 -74.50 TS 35 13 264
1886 NA NA 1886-09-18 00:00:00 TS 21.23 -75.90 40 hurdat_atl 15 0 O____________O hurdat_atl AL081886 21.00 -76.30 TS 40 0 21.70 -75.10 TS 35 13 259
1886 NA NA 03:00:00 TS 21.12 -76.52 0 0 P____________P AL081886 21.00 -76.91 TS 37 0 21.35 -75.75 TS 32 12 259
1886 NA NA 06:00:00 TS 21.00 -77.13 35 hurdat_atl 0 0 O____________O hurdat_atl AL081886 21.00 -77.50 TS 35 0 21.00 -76.40 TD 30 12 258
1886 NA NA 09:00:00 TS 20.86 -77.82 0 0 P____________P AL081886 20.98 -78.23 TS 35 0 20.62 -77.00 TD 30 13 260
1886 NA CS 12:00:00 TS 20.77 -78.53 35 hurdat_atl 22 22 O____________O hurdat_atl AL081886 21.00 -79.00 TS 35 0 20.30 -77.60 TD 30 13 266
1886 NA CS 15:00:00 TS 20.76 -79.25 78 78 P____________P AL081886 21.09 -79.76 TS 37 0 20.10 -78.25 TD 30 13 271
1886 NA CS 18:00:00 TS 20.80 -79.97 40 hurdat_atl 100 100 O____________O hurdat_atl AL081886 21.20 -80.50 TS 40 0 20.00 -78.90 TD 30 13 272
1886 NA CS 21:00:00 TS 20.82 -80.65 124 124 P____________P AL081886 21.26 -81.23 TS 42 0 19.93 -79.50 TD 30 12 272
1886 NA CS 1886-09-19 00:00:00 TS 20.83 -81.30 45 hurdat_atl 134 108 O____________O hurdat_atl AL081886 21.30 -81.90 TS 45 0 19.90 -80.10 TD 30 12 272
1886 NA CS 03:00:00 TS 20.85 -81.89 108 69 P____________P AL081886 21.35 -82.46 TS 47 0 19.84 -80.75 TD 30 11 272
1886 NA CS 06:00:00 TS 20.87 -82.47 50 hurdat_atl 63 55 O____________O hurdat_atl AL081886 21.40 -83.00 TS 50 0 19.80 -81.40 TD 30 11 272
1886 NA CS 09:00:00 TS 20.89 -83.09 63 63 P____________P AL081886 21.44 -83.63 TS 52 0 19.78 -82.00 TD 30 12 273
1886 NA CS 12:00:00 TS 20.93 -83.73 55 hurdat_atl 98 90 O____________O hurdat_atl AL081886 21.50 -84.30 TS 55 0 19.80 -82.60 TD 30 13 276
1886 NA CS 15:00:00 TS 21.02 -84.42 90 78 P____________P AL081886 21.58 -85.00 TS 57 0 19.89 -83.25 TD 30 13 279
1886 NA CS 18:00:00 TS 21.13 -85.10 60 hurdat_atl 84 78 O____________O hurdat_atl AL081886 21.70 -85.70 TS 60 0 20.00 -83.90 TD 30 13 281
1886 NA CS 21:00:00 TS 21.25 -85.74 104 47 P____________P AL081886 21.85 -86.36 TS 62 0 20.05 -84.50 TD 30 12 281
1886 NA CS 1886-09-20 00:00:00 TS 21.37 -86.37 65 hurdat_atl 42 0 O____________O hurdat_atl AL081886 22.00 -87.00 HU 65 1 20.10 -85.10 TD 30 12 281
1886 NA NA 03:00:00 TS 21.47 -87.01 0 0 P____________P AL081886 22.11 -87.64 HU 67 1 20.19 -85.75 TD 30 12 279
1886 NA GM 06:00:00 TS 21.57 -87.67 70 hurdat_atl 11 11 O____________O hurdat_atl AL081886 22.20 -88.30 HU 70 1 20.30 -86.40 TD 30 12 278
1886 NA GM 09:00:00 TS 21.64 -88.34 11 11 P____________P AL081886 22.26 -89.01 HU 72 1 20.39 -87.00 TD 30 12 276
1886 NA GM 12:00:00 TS 21.70 -89.00 75 hurdat_atl 39 39 O____________O hurdat_atl AL081886 22.30 -89.70 HU 75 1 20.50 -87.60 TD 30 12 275
1886 NA GM 15:00:00 TS 21.75 -89.63 63 63 P____________P AL081886 22.31 -90.32 HU 77 1 20.64 -88.25 TD 30 12 275
1886 NA GM 18:00:00 TS 21.80 -90.23 80 hurdat_atl 73 73 O____________O hurdat_atl AL081886 22.30 -90.90 HU 80 1 20.80 -88.90 TD 30 11 275
1886 NA GM 21:00:00 TS 21.84 -90.83 93 93 P____________P AL081886 22.29 -91.50 HU 82 1 20.95 -89.50 TD 30 11 275
1886 NA GM 1886-09-21 00:00:00 TS 21.90 -91.43 85 hurdat_atl 144 144 O____________O hurdat_atl AL081886 22.30 -92.10 HU 85 2 21.10 -90.10 TD 30 11 277
1886 NA GM 03:00:00 TS 21.97 -92.04 202 202 P____________P AL081886 22.34 -92.68 HU 85 2 21.23 -90.75 TD 32 12 278
1886 NA GM 06:00:00 TS 22.07 -92.67 85 hurdat_atl 272 272 O____________O hurdat_atl AL081886 22.40 -93.30 HU 85 2 21.40 -91.40 TS 35 12 279
1886 NA GM 09:00:00 TS 22.17 -93.36 343 343 P____________P AL081886 22.44 -94.04 HU 85 2 21.63 -92.02 TS 40 13 281
1886 NA GM 12:00:00 TS 22.30 -94.00 85 hurdat_atl 349 311 O____________O hurdat_atl AL081886 22.50 -94.70 HU 85 2 21.90 -92.60 TS 45 11 286
1886 NA GM 15:00:00 TS 22.45 -94.46 305 280 P____________P AL081886 22.61 -95.11 HU 85 2 22.13 -93.16 TS 50 9 295
1886 NA GM 18:00:00 TS 22.67 -94.83 85 hurdat_atl 285 260 O____________O hurdat_atl AL081886 22.80 -95.40 HU 85 2 22.40 -93.70 TS 55 9 307
1886 NA GM 21:00:00 TS 22.98 -95.23 266 224 P____________P AL081886 23.08 -95.71 HU 85 2 22.78 -94.25 TS 57 10 313
1886 NA GM 1886-09-22 00:00:00 TS 23.33 -95.60 85 hurdat_atl 224 183 O____________O hurdat_atl AL081886 23.40 -96.00 HU 85 2 23.20 -94.80 TS 60 10 316
1886 NA GM 03:00:00 TS 23.68 -95.97 183 152 P____________P AL081886 23.72 -96.28 HU 85 2 23.60 -95.35 TS 67 9 316
1886 NA GM 06:00:00 TS 24.00 -96.30 85 hurdat_atl 152 113 O____________O hurdat_atl AL081886 24.00 -96.50 HU 85 2 24.00 -95.90 HU 75 8 317
1886 NA GM 09:00:00 TS 24.28 -96.58 113 90 P____________P AL081886 24.21 -96.62 HU 85 2 24.44 -96.50 HU 80 7 319
1886 NA GM 12:00:00 TS 24.53 -96.80 85 hurdat_atl 90 69 O____________O hurdat_atl AL081886 24.40 -96.70 HU 85 2 24.80 -97.00 HU 85 6 324
1886 NA GM 15:00:00 TS 24.76 -96.95 55 37 P____________P AL081886 24.64 -96.80 HU 85 2 24.99 -97.26 HU 85 5 331
1886 NA GM 18:00:00 TS 24.97 -97.07 85 hurdat_atl 37 20 O____________O hurdat_atl AL081886 24.90 -96.90 HU 85 2 25.10 -97.40 HU 85 5 332
1886 NA GM 21:00:00 TS 25.17 -97.20 20 0 P____________P AL081886 25.15 -97.01 HU 85 2 25.21 -97.58 HU 85 5 334
1886 NA GM 1886-09-23 00:00:00 TS 25.40 -97.30 85 hurdat_atl 0 0 O____________O hurdat_atl AL081886 25.40 -97.10 HU 85 2 25.40 -97.70 HU 85 6 346
1886 NA NA 03:00:00 TS 25.70 -97.34 0 0 P____________P AL081886 25.64 -97.15 HU 85 2 25.82 -97.72 HU 85 6 355
1886 NA NA 06:00:00 TS 26.03 -97.37 85 hurdat_atl 0 0 O____________O hurdat_atl AL081886 25.90 -97.20 HU 85 2 26.30 -97.70 HU 85 987 7 353
1886 NA NA 09:00:00 TS 26.35 -97.43 0 0 P____________P AL081886 26.19 -97.30 HU 82 1 26.66 -97.70 HU 82 6 350
1886 NA NA 12:00:00 TS 26.67 -97.50 80 hurdat_atl 0 0 O____________O hurdat_atl AL081886 26.50 -97.40 HU 80 1 27.00 -97.70 HU 80 6 351
1886 NA GM 15:00:00 TS 26.98 -97.54 0 0 P____________P AL081886 26.79 -97.47 HU 77 1 27.36 -97.70 HU 77 6 355
1886 NA GM 18:00:00 TS 27.30 -97.57 75 hurdat_atl 0 0 O____________O hurdat_atl AL081886 27.10 -97.50 HU 75 1 27.70 -97.70 HU 75 7 359
1886 NA NA 21:00:00 TS 27.63 -97.57 0 0 P____________P AL081886 27.44 -97.51 HU 72 1 28.01 -97.69 HU 72 7 1
1886 NA NA 1886-09-24 00:00:00 TS 27.97 -97.57 70 hurdat_atl 0 0 O____________O hurdat_atl AL081886 27.80 -97.50 HU 70 1 28.30 -97.70 HU 70 7 0
1886 NA NA 03:00:00 TS 28.30 -97.55 0 0 P____________P AL081886 28.15 -97.46 HU 67 1 28.60 -97.75 HU 65 7 4
1886 NA NA 06:00:00 TS 28.63 -97.53 65 hurdat_atl 0 0 O____________O hurdat_atl AL081886 28.50 -97.40 HU 65 1 28.90 -97.80 TS 60 6 4
1886 NA NA 09:00:00 TS 28.93 -97.52 0 0 P____________P AL081886 28.84 -97.36 HU 55 0 29.12 -97.82 TS 52 7 3
1886 NA NA 12:00:00 TS 29.32 -97.50 45 hurdat_atl 0 0 O____________O hurdat_atl AL081886 29.20 -97.30 TS 45 0 29.50 -97.80 TS 45 10 4
1886 NA NA 15:00:00 TS 29.93 -97.44 0 0 P____________P AL081886 29.59 -97.17 TS 37 0 30.28 -97.72 TS 37 15 3
1886 NA NA 18:00:00 TS 30.80 -97.40 30 hurdat_atl 0 0 O____________O hurdat_atl AL081886 30.00 -97.00 TD 30 -1 31.20 -97.60 TD 30 21 359
1886 NA NA 21:00:00 TS 32.01 -97.51 0 0 _____________P AL081886 TD -1 32.01 -97.51 TD 30 20 0
1886 NA NA 1886-09-25 00:00:00 TS 32.80 -97.40 0 0 _____________O 32.80 -97.40 TD 30 16 6
1886 NA NA 03:00:00 TS 33.60 -97.32 0 0 _____________P 33.60 -97.32 TD 25 16 9
1886 NA NA 06:00:00 TS 34.40 -97.10 0 0 _____________O 34.40 -97.10 TD 20 16 19
1886 NA NA 09:00:00 TS 35.13 -96.67 0 0 _____________P 35.13 -96.67 TD 20 18 29
1886 NA NA 12:00:00 TS 36.00 -96.00 0 0 _____________O 36.00 -96.00 TD 20 24 32
1886 NA NA 15:00:00 TS 37.16 -95.08 0 0 _____________P 37.16 -95.08 TD 20 30 33
1886 NA NA 18:00:00 TS 38.50 -94.00 0 _____________O 38.50 -94.00 TD 20 32 32